sensor_id;sensor_type;location;lat;lon;timestamp;P1;durP1;ratioP1;P2;durP2;ratioP2
54937;SDS011;52756;52.826;6.214;2023-08-12T00:01:50;6.25;;;3.42;;
54937;SDS011;52756;52.826;6.214;2023-08-12T00:04:16;4.05;;;2.53;;
54937;SDS011;52756;52.826;6.214;2023-08-12T00:06:42;3.88;;;3.00;;
54937;SDS011;52756;52.826;6.214;2023-08-12T00:09:08;3.50;;;2.03;;
54937;SDS011;52756;52.826;6.214;2023-08-12T00:11:36;4.47;;;2.63;;
54937;SDS011;52756;52.826;6.214;2023-08-12T00:14:03;5.25;;;3.03;;
54937;SDS011;52756;52.826;6.214;2023-08-12T00:16:29;5.05;;;3.28;;
54937;SDS011;52756;52.826;6.214;2023-08-12T00:18:55;6.05;;;3.65;;
54937;SDS011;52756;52.826;6.214;2023-08-12T00:21:21;4.90;;;3.80;;
54937;SDS011;52756;52.826;6.214;2023-08-12T00:23:46;5.65;;;4.03;;
54937;SDS011;52756;52.826;6.214;2023-08-12T00:26:14;4.88;;;3.50;;
54937;SDS011;52756;52.826;6.214;2023-08-12T00:28:40;6.07;;;3.92;;
54937;SDS011;52756;52.826;6.214;2023-08-12T00:31:06;7.45;;;3.88;;
54937;SDS011;52756;52.826;6.214;2023-08-12T00:33:32;4.63;;;3.42;;
54937;SDS011;52756;52.826;6.214;2023-08-12T00:35:58;3.90;;;3.05;;
54937;SDS011;52756;52.826;6.214;2023-08-12T00:38:23;4.68;;;2.97;;
54937;SDS011;52756;52.826;6.214;2023-08-12T00:40:49;3.30;;;2.50;;
54937;SDS011;52756;52.826;6.214;2023-08-12T00:43:15;3.15;;;2.83;;
54937;SDS011;52756;52.826;6.214;2023-08-12T00:45:42;3.83;;;2.90;;
54937;SDS011;52756;52.826;6.214;2023-08-12T00:48:08;9.57;;;6.43;;
54937;SDS011;52756;52.826;6.214;2023-08-12T00:50:35;11.43;;;5.55;;
54937;SDS011;52756;52.826;6.214;2023-08-12T00:53:02;7.07;;;4.35;;
54937;SDS011;52756;52.826;6.214;2023-08-12T00:55:31;6.40;;;4.13;;
54937;SDS011;52756;52.826;6.214;2023-08-12T00:57:58;7.35;;;5.00;;
54937;SDS011;52756;52.826;6.214;2023-08-12T01:00:24;9.35;;;5.68;;
54937;SDS011;52756;52.826;6.214;2023-08-12T01:02:50;4.38;;;3.55;;
54937;SDS011;52756;52.826;6.214;2023-08-12T01:05:17;7.55;;;5.30;;
54937;SDS011;52756;52.826;6.214;2023-08-12T01:07:43;8.00;;;5.35;;
54937;SDS011;52756;52.826;6.214;2023-08-12T01:10:10;9.02;;;6.35;;
54937;SDS011;52756;52.826;6.214;2023-08-12T01:15:31;6.65;;;5.65;;
54937;SDS011;52756;52.826;6.214;2023-08-12T01:17:58;4.75;;;3.47;;
54937;SDS011;52756;52.826;6.214;2023-08-12T01:20:26;5.45;;;4.85;;
54937;SDS011;52756;52.826;6.214;2023-08-12T01:22:56;7.40;;;5.63;;
54937;SDS011;52756;52.826;6.214;2023-08-12T01:25:26;8.35;;;6.93;;
54937;SDS011;52756;52.826;6.214;2023-08-12T01:27:52;10.70;;;6.50;;
54937;SDS011;52756;52.826;6.214;2023-08-12T01:30:18;11.07;;;7.70;;
54937;SDS011;52756;52.826;6.214;2023-08-12T01:32:57;9.40;;;5.93;;
54937;SDS011;52756;52.826;6.214;2023-08-12T01:35:26;9.50;;;6.20;;
54937;SDS011;52756;52.826;6.214;2023-08-12T01:38:02;9.07;;;5.97;;
54937;SDS011;52756;52.826;6.214;2023-08-12T01:40:29;6.63;;;5.32;;
54937;SDS011;52756;52.826;6.214;2023-08-12T01:42:56;6.65;;;3.85;;
54937;SDS011;52756;52.826;6.214;2023-08-12T01:45:22;4.72;;;3.08;;
54937;SDS011;52756;52.826;6.214;2023-08-12T01:47:48;4.18;;;2.67;;
54937;SDS011;52756;52.826;6.214;2023-08-12T01:50:16;6.70;;;5.32;;
54937;SDS011;52756;52.826;6.214;2023-08-12T01:52:42;7.03;;;4.50;;
54937;SDS011;52756;52.826;6.214;2023-08-12T01:55:08;4.53;;;3.70;;
54937;SDS011;52756;52.826;6.214;2023-08-12T01:57:33;5.88;;;4.03;;
54937;SDS011;52756;52.826;6.214;2023-08-12T02:00:00;3.63;;;2.85;;
54937;SDS011;52756;52.826;6.214;2023-08-12T02:02:26;6.20;;;4.28;;
54937;SDS011;52756;52.826;6.214;2023-08-12T02:04:52;4.65;;;3.03;;
54937;SDS011;52756;52.826;6.214;2023-08-12T02:07:18;4.97;;;4.47;;
54937;SDS011;52756;52.826;6.214;2023-08-12T02:09:44;6.07;;;5.13;;
54937;SDS011;52756;52.826;6.214;2023-08-12T02:12:09;3.90;;;3.42;;
54937;SDS011;52756;52.826;6.214;2023-08-12T02:14:35;9.55;;;6.70;;
54937;SDS011;52756;52.826;6.214;2023-08-12T02:17:01;10.02;;;7.13;;
54937;SDS011;52756;52.826;6.214;2023-08-12T02:19:30;9.25;;;6.78;;
54937;SDS011;52756;52.826;6.214;2023-08-12T02:21:57;10.35;;;7.53;;
54937;SDS011;52756;52.826;6.214;2023-08-12T02:24:24;7.75;;;6.53;;
54937;SDS011;52756;52.826;6.214;2023-08-12T02:26:49;8.73;;;7.15;;
54937;SDS011;52756;52.826;6.214;2023-08-12T02:29:15;10.30;;;7.72;;
54937;SDS011;52756;52.826;6.214;2023-08-12T02:31:41;10.90;;;7.90;;
54937;SDS011;52756;52.826;6.214;2023-08-12T02:34:06;9.20;;;7.82;;
54937;SDS011;52756;52.826;6.214;2023-08-12T02:36:32;11.50;;;8.82;;
54937;SDS011;52756;52.826;6.214;2023-08-12T02:38:58;10.25;;;8.00;;
54937;SDS011;52756;52.826;6.214;2023-08-12T02:41:23;10.95;;;7.85;;
54937;SDS011;52756;52.826;6.214;2023-08-12T02:43:49;11.57;;;8.52;;
54937;SDS011;52756;52.826;6.214;2023-08-12T02:46:15;8.68;;;7.72;;
54937;SDS011;52756;52.826;6.214;2023-08-12T02:48:41;11.55;;;8.63;;
54937;SDS011;52756;52.826;6.214;2023-08-12T02:51:07;9.65;;;7.75;;
54937;SDS011;52756;52.826;6.214;2023-08-12T02:53:33;10.00;;;8.20;;
54937;SDS011;52756;52.826;6.214;2023-08-12T02:55:59;11.30;;;8.57;;
54937;SDS011;52756;52.826;6.214;2023-08-12T02:58:24;10.05;;;8.23;;
54937;SDS011;52756;52.826;6.214;2023-08-12T03:00:50;8.45;;;6.43;;
54937;SDS011;52756;52.826;6.214;2023-08-12T03:03:16;5.30;;;4.72;;
54937;SDS011;52756;52.826;6.214;2023-08-12T03:05:45;9.10;;;7.57;;
54937;SDS011;52756;52.826;6.214;2023-08-12T03:08:14;10.10;;;7.05;;
54937;SDS011;52756;52.826;6.214;2023-08-12T03:10:40;8.48;;;6.05;;
54937;SDS011;52756;52.826;6.214;2023-08-12T03:13:06;10.02;;;6.93;;
54937;SDS011;52756;52.826;6.214;2023-08-12T03:15:31;6.65;;;5.68;;
54937;SDS011;52756;52.826;6.214;2023-08-12T03:17:57;7.70;;;6.68;;
54937;SDS011;52756;52.826;6.214;2023-08-12T03:20:23;12.02;;;8.80;;
54937;SDS011;52756;52.826;6.214;2023-08-12T03:22:48;13.27;;;8.48;;
54937;SDS011;52756;52.826;6.214;2023-08-12T03:25:14;8.93;;;7.60;;
54937;SDS011;52756;52.826;6.214;2023-08-12T03:27:40;10.68;;;8.95;;
54937;SDS011;52756;52.826;6.214;2023-08-12T03:30:06;10.48;;;7.22;;
54937;SDS011;52756;52.826;6.214;2023-08-12T03:32:33;11.98;;;7.93;;
54937;SDS011;52756;52.826;6.214;2023-08-12T03:34:58;9.55;;;8.50;;
54937;SDS011;52756;52.826;6.214;2023-08-12T03:37:24;9.20;;;7.78;;
54937;SDS011;52756;52.826;6.214;2023-08-12T03:39:50;11.27;;;9.07;;
54937;SDS011;52756;52.826;6.214;2023-08-12T03:42:16;10.43;;;7.65;;
54937;SDS011;52756;52.826;6.214;2023-08-12T03:44:45;9.80;;;7.32;;
54937;SDS011;52756;52.826;6.214;2023-08-12T03:47:11;9.35;;;7.65;;
54937;SDS011;52756;52.826;6.214;2023-08-12T03:49:36;13.18;;;9.40;;
54937;SDS011;52756;52.826;6.214;2023-08-12T03:52:02;10.00;;;7.20;;
54937;SDS011;52756;52.826;6.214;2023-08-12T03:54:29;11.32;;;8.65;;
54937;SDS011;52756;52.826;6.214;2023-08-12T03:56:54;10.55;;;8.82;;
54937;SDS011;52756;52.826;6.214;2023-08-12T03:59:20;9.50;;;7.47;;
54937;SDS011;52756;52.826;6.214;2023-08-12T04:01:46;5.60;;;4.95;;
54937;SDS011;52756;52.826;6.214;2023-08-12T04:04:11;9.52;;;7.03;;
54937;SDS011;52756;52.826;6.214;2023-08-12T04:06:37;13.10;;;9.25;;
54937;SDS011;52756;52.826;6.214;2023-08-12T04:09:03;11.38;;;9.40;;
54937;SDS011;52756;52.826;6.214;2023-08-12T04:11:29;10.30;;;8.07;;
54937;SDS011;52756;52.826;6.214;2023-08-12T04:13:54;11.27;;;9.18;;
54937;SDS011;52756;52.826;6.214;2023-08-12T04:16:20;12.55;;;10.13;;
54937;SDS011;52756;52.826;6.214;2023-08-12T04:18:47;12.05;;;9.73;;
54937;SDS011;52756;52.826;6.214;2023-08-12T04:21:13;13.23;;;10.02;;
54937;SDS011;52756;52.826;6.214;2023-08-12T04:23:39;12.70;;;9.70;;
54937;SDS011;52756;52.826;6.214;2023-08-12T04:26:05;10.60;;;8.05;;
54937;SDS011;52756;52.826;6.214;2023-08-12T04:28:31;10.45;;;8.80;;
54937;SDS011;52756;52.826;6.214;2023-08-12T04:30:56;12.30;;;8.52;;
54937;SDS011;52756;52.826;6.214;2023-08-12T04:33:22;12.25;;;10.18;;
54937;SDS011;52756;52.826;6.214;2023-08-12T04:35:48;14.27;;;10.38;;
54937;SDS011;52756;52.826;6.214;2023-08-12T04:38:15;13.65;;;9.80;;
54937;SDS011;52756;52.826;6.214;2023-08-12T04:40:41;10.88;;;9.02;;
54937;SDS011;52756;52.826;6.214;2023-08-12T04:43:07;15.05;;;9.50;;
54937;SDS011;52756;52.826;6.214;2023-08-12T04:45:34;12.65;;;10.40;;
54937;SDS011;52756;52.826;6.214;2023-08-12T04:47:59;14.40;;;11.65;;
54937;SDS011;52756;52.826;6.214;2023-08-12T04:50:25;14.90;;;10.18;;
54937;SDS011;52756;52.826;6.214;2023-08-12T04:52:54;15.90;;;11.25;;
54937;SDS011;52756;52.826;6.214;2023-08-12T04:55:20;15.63;;;11.13;;
54937;SDS011;52756;52.826;6.214;2023-08-12T04:57:46;12.27;;;9.27;;
54937;SDS011;52756;52.826;6.214;2023-08-12T05:00:11;15.77;;;10.52;;
54937;SDS011;52756;52.826;6.214;2023-08-12T05:02:37;15.38;;;11.15;;
54937;SDS011;52756;52.826;6.214;2023-08-12T05:05:03;15.65;;;11.13;;
54937;SDS011;52756;52.826;6.214;2023-08-12T05:07:30;12.60;;;10.68;;
54937;SDS011;52756;52.826;6.214;2023-08-12T05:09:56;13.15;;;9.73;;
54937;SDS011;52756;52.826;6.214;2023-08-12T05:12:22;16.40;;;12.43;;
54937;SDS011;52756;52.826;6.214;2023-08-12T05:14:47;16.17;;;11.75;;
54937;SDS011;52756;52.826;6.214;2023-08-12T05:17:13;19.17;;;13.02;;
54937;SDS011;52756;52.826;6.214;2023-08-12T05:19:39;17.35;;;12.10;;
54937;SDS011;52756;52.826;6.214;2023-08-12T05:22:04;10.52;;;9.02;;
54937;SDS011;52756;52.826;6.214;2023-08-12T05:24:30;14.57;;;10.25;;
54937;SDS011;52756;52.826;6.214;2023-08-12T05:26:56;17.60;;;12.82;;
54937;SDS011;52756;52.826;6.214;2023-08-12T05:29:21;17.70;;;12.32;;
54937;SDS011;52756;52.826;6.214;2023-08-12T05:31:47;16.58;;;12.82;;
54937;SDS011;52756;52.826;6.214;2023-08-12T05:34:13;17.13;;;11.52;;
54937;SDS011;52756;52.826;6.214;2023-08-12T05:36:39;17.42;;;13.68;;
54937;SDS011;52756;52.826;6.214;2023-08-12T05:39:04;20.08;;;13.18;;
54937;SDS011;52756;52.826;6.214;2023-08-12T05:41:31;18.65;;;14.98;;
54937;SDS011;52756;52.826;6.214;2023-08-12T05:43:56;18.70;;;14.32;;
54937;SDS011;52756;52.826;6.214;2023-08-12T05:46:22;19.48;;;14.63;;
54937;SDS011;52756;52.826;6.214;2023-08-12T05:48:48;21.27;;;15.18;;
54937;SDS011;52756;52.826;6.214;2023-08-12T05:51:13;19.75;;;15.15;;
54937;SDS011;52756;52.826;6.214;2023-08-12T05:53:39;18.30;;;13.52;;
54937;SDS011;52756;52.826;6.214;2023-08-12T05:56:05;23.88;;;15.95;;
54937;SDS011;52756;52.826;6.214;2023-08-12T05:58:30;16.08;;;13.85;;
54937;SDS011;52756;52.826;6.214;2023-08-12T06:00:56;21.25;;;16.55;;
54937;SDS011;52756;52.826;6.214;2023-08-12T06:03:22;18.20;;;15.13;;
54937;SDS011;52756;52.826;6.214;2023-08-12T06:05:47;21.25;;;15.90;;
54937;SDS011;52756;52.826;6.214;2023-08-12T06:08:14;20.02;;;15.82;;
54937;SDS011;52756;52.826;6.214;2023-08-12T06:10:40;18.52;;;14.60;;
54937;SDS011;52756;52.826;6.214;2023-08-12T06:13:06;24.50;;;18.73;;
54937;SDS011;52756;52.826;6.214;2023-08-12T06:15:32;24.00;;;17.98;;
54937;SDS011;52756;52.826;6.214;2023-08-12T06:18:01;21.10;;;17.10;;
54937;SDS011;52756;52.826;6.214;2023-08-12T06:20:27;22.17;;;18.67;;
54937;SDS011;52756;52.826;6.214;2023-08-12T06:22:52;23.27;;;17.75;;
54937;SDS011;52756;52.826;6.214;2023-08-12T06:25:18;24.08;;;18.70;;
54937;SDS011;52756;52.826;6.214;2023-08-12T06:27:46;20.02;;;17.25;;
54937;SDS011;52756;52.826;6.214;2023-08-12T06:30:12;20.25;;;16.10;;
54937;SDS011;52756;52.826;6.214;2023-08-12T06:32:39;24.30;;;18.95;;
54937;SDS011;52756;52.826;6.214;2023-08-12T06:35:05;20.92;;;17.63;;
54937;SDS011;52756;52.826;6.214;2023-08-12T06:37:31;24.95;;;19.33;;
54937;SDS011;52756;52.826;6.214;2023-08-12T06:39:57;22.60;;;16.60;;
54937;SDS011;52756;52.826;6.214;2023-08-12T06:42:22;21.27;;;17.45;;
54937;SDS011;52756;52.826;6.214;2023-08-12T06:44:55;21.85;;;16.77;;
54937;SDS011;52756;52.826;6.214;2023-08-12T06:49:48;21.48;;;18.20;;
54937;SDS011;52756;52.826;6.214;2023-08-12T06:52:14;19.80;;;16.17;;
54937;SDS011;52756;52.826;6.214;2023-08-12T06:54:41;21.70;;;17.33;;
54937;SDS011;52756;52.826;6.214;2023-08-12T06:57:07;22.20;;;18.70;;
54937;SDS011;52756;52.826;6.214;2023-08-12T06:59:32;22.02;;;19.02;;
54937;SDS011;52756;52.826;6.214;2023-08-12T07:01:58;20.65;;;17.77;;
54937;SDS011;52756;52.826;6.214;2023-08-12T07:04:24;20.48;;;17.00;;
54937;SDS011;52756;52.826;6.214;2023-08-12T07:06:50;20.10;;;16.75;;
54937;SDS011;52756;52.826;6.214;2023-08-12T07:09:16;23.08;;;19.48;;
54937;SDS011;52756;52.826;6.214;2023-08-12T07:11:41;24.55;;;19.60;;
54937;SDS011;52756;52.826;6.214;2023-08-12T07:14:07;21.35;;;19.05;;
54937;SDS011;52756;52.826;6.214;2023-08-12T07:16:33;21.42;;;18.15;;
54937;SDS011;52756;52.826;6.214;2023-08-12T07:18:58;24.45;;;19.80;;
54937;SDS011;52756;52.826;6.214;2023-08-12T07:21:24;24.33;;;19.90;;
54937;SDS011;52756;52.826;6.214;2023-08-12T07:23:50;24.40;;;21.15;;
54937;SDS011;52756;52.826;6.214;2023-08-12T07:26:16;23.65;;;20.92;;
54937;SDS011;52756;52.826;6.214;2023-08-12T07:28:41;22.13;;;18.92;;
54937;SDS011;52756;52.826;6.214;2023-08-12T07:31:07;22.02;;;19.00;;
54937;SDS011;52756;52.826;6.214;2023-08-12T07:33:33;23.75;;;20.05;;
54937;SDS011;52756;52.826;6.214;2023-08-12T07:35:59;22.90;;;20.13;;
54937;SDS011;52756;52.826;6.214;2023-08-12T07:38:25;22.20;;;18.80;;
54937;SDS011;52756;52.826;6.214;2023-08-12T07:40:51;25.73;;;20.10;;
54937;SDS011;52756;52.826;6.214;2023-08-12T07:43:16;24.58;;;19.92;;
54937;SDS011;52756;52.826;6.214;2023-08-12T07:45:42;27.05;;;20.92;;
54937;SDS011;52756;52.826;6.214;2023-08-12T07:48:08;21.98;;;19.45;;
54937;SDS011;52756;52.826;6.214;2023-08-12T07:50:34;24.13;;;20.88;;
54937;SDS011;52756;52.826;6.214;2023-08-12T07:53:00;24.08;;;20.63;;
54937;SDS011;52756;52.826;6.214;2023-08-12T07:55:26;27.23;;;21.10;;
54937;SDS011;52756;52.826;6.214;2023-08-12T07:57:52;25.90;;;20.13;;
54937;SDS011;52756;52.826;6.214;2023-08-12T08:00:18;25.63;;;20.48;;
54937;SDS011;52756;52.826;6.214;2023-08-12T08:02:44;24.15;;;20.70;;
54937;SDS011;52756;52.826;6.214;2023-08-12T08:05:10;21.98;;;18.63;;
54937;SDS011;52756;52.826;6.214;2023-08-12T08:07:36;23.73;;;19.75;;
54937;SDS011;52756;52.826;6.214;2023-08-12T08:10:02;26.88;;;21.33;;
54937;SDS011;52756;52.826;6.214;2023-08-12T08:12:27;27.50;;;22.05;;
54937;SDS011;52756;52.826;6.214;2023-08-12T08:14:53;24.17;;;21.58;;
54937;SDS011;52756;52.826;6.214;2023-08-12T08:17:19;24.83;;;21.38;;
54937;SDS011;52756;52.826;6.214;2023-08-12T08:19:44;25.30;;;21.23;;
54937;SDS011;52756;52.826;6.214;2023-08-12T08:22:10;28.50;;;21.95;;
54937;SDS011;52756;52.826;6.214;2023-08-12T08:24:36;28.88;;;22.80;;
54937;SDS011;52756;52.826;6.214;2023-08-12T08:27:01;23.73;;;21.20;;
54937;SDS011;52756;52.826;6.214;2023-08-12T08:29:29;27.85;;;21.80;;
54937;SDS011;52756;52.826;6.214;2023-08-12T08:31:55;25.30;;;20.17;;
54937;SDS011;52756;52.826;6.214;2023-08-12T08:34:21;21.38;;;18.35;;
54937;SDS011;52756;52.826;6.214;2023-08-12T08:36:46;23.23;;;19.33;;
54937;SDS011;52756;52.826;6.214;2023-08-12T08:39:12;21.38;;;18.67;;
54937;SDS011;52756;52.826;6.214;2023-08-12T08:41:38;19.08;;;17.08;;
54937;SDS011;52756;52.826;6.214;2023-08-12T08:44:06;20.70;;;17.73;;
54937;SDS011;52756;52.826;6.214;2023-08-12T08:46:33;19.50;;;16.75;;
54937;SDS011;52756;52.826;6.214;2023-08-12T08:48:59;17.20;;;15.30;;
54937;SDS011;52756;52.826;6.214;2023-08-12T08:51:31;15.20;;;13.40;;
54937;SDS011;52756;52.826;6.214;2023-08-12T08:53:57;16.40;;;13.95;;
54937;SDS011;52756;52.826;6.214;2023-08-12T08:56:23;13.63;;;11.90;;
54937;SDS011;52756;52.826;6.214;2023-08-12T08:58:49;11.55;;;8.63;;
54937;SDS011;52756;52.826;6.214;2023-08-12T09:01:15;10.85;;;8.55;;
54937;SDS011;52756;52.826;6.214;2023-08-12T09:03:45;9.32;;;7.63;;
54937;SDS011;52756;52.826;6.214;2023-08-12T09:06:12;11.30;;;7.70;;
54937;SDS011;52756;52.826;6.214;2023-08-12T09:08:38;10.57;;;7.35;;
54937;SDS011;52756;52.826;6.214;2023-08-12T09:11:09;10.95;;;7.35;;
54937;SDS011;52756;52.826;6.214;2023-08-12T09:13:37;8.00;;;6.63;;
54937;SDS011;52756;52.826;6.214;2023-08-12T09:16:03;7.82;;;6.85;;
54937;SDS011;52756;52.826;6.214;2023-08-12T09:18:29;6.95;;;5.57;;
54937;SDS011;52756;52.826;6.214;2023-08-12T09:20:55;8.68;;;7.03;;
54937;SDS011;52756;52.826;6.214;2023-08-12T09:23:21;6.85;;;5.78;;
54937;SDS011;52756;52.826;6.214;2023-08-12T09:25:47;6.53;;;5.38;;
54937;SDS011;52756;52.826;6.214;2023-08-12T09:28:13;8.35;;;5.63;;
54937;SDS011;52756;52.826;6.214;2023-08-12T09:30:40;6.65;;;5.60;;
54937;SDS011;52756;52.826;6.214;2023-08-12T09:33:07;6.28;;;5.32;;
54937;SDS011;52756;52.826;6.214;2023-08-12T09:38:21;6.32;;;4.72;;
54937;SDS011;52756;52.826;6.214;2023-08-12T09:40:46;6.50;;;5.35;;
54937;SDS011;52756;52.826;6.214;2023-08-12T09:43:12;5.63;;;4.65;;
54937;SDS011;52756;52.826;6.214;2023-08-12T09:45:38;5.32;;;4.75;;
54937;SDS011;52756;52.826;6.214;2023-08-12T09:48:04;5.03;;;4.13;;
54937;SDS011;52756;52.826;6.214;2023-08-12T09:50:32;5.28;;;4.40;;
54937;SDS011;52756;52.826;6.214;2023-08-12T09:52:58;4.45;;;3.53;;
54937;SDS011;52756;52.826;6.214;2023-08-12T09:55:26;3.85;;;3.33;;
54937;SDS011;52756;52.826;6.214;2023-08-12T09:57:54;5.18;;;3.70;;
54937;SDS011;52756;52.826;6.214;2023-08-12T10:00:22;3.42;;;2.80;;
54937;SDS011;52756;52.826;6.214;2023-08-12T10:02:49;3.03;;;2.40;;
54937;SDS011;52756;52.826;6.214;2023-08-12T10:05:24;3.17;;;2.67;;
54937;SDS011;52756;52.826;6.214;2023-08-12T10:07:53;3.03;;;2.53;;
54937;SDS011;52756;52.826;6.214;2023-08-12T10:10:19;3.03;;;2.30;;
54937;SDS011;52756;52.826;6.214;2023-08-12T10:12:47;3.00;;;1.90;;
54937;SDS011;52756;52.826;6.214;2023-08-12T10:15:13;3.65;;;2.20;;
54937;SDS011;52756;52.826;6.214;2023-08-12T10:17:42;3.97;;;2.50;;
54937;SDS011;52756;52.826;6.214;2023-08-12T10:20:11;3.78;;;2.22;;
54937;SDS011;52756;52.826;6.214;2023-08-12T10:22:39;3.53;;;2.72;;
54937;SDS011;52756;52.826;6.214;2023-08-12T10:25:06;3.67;;;2.15;;
54937;SDS011;52756;52.826;6.214;2023-08-12T10:27:36;2.58;;;2.25;;
54937;SDS011;52756;52.826;6.214;2023-08-12T10:30:06;3.75;;;1.83;;
54937;SDS011;52756;52.826;6.214;2023-08-12T10:32:35;3.08;;;2.30;;
54937;SDS011;52756;52.826;6.214;2023-08-12T10:35:01;3.15;;;2.00;;
54937;SDS011;52756;52.826;6.214;2023-08-12T10:37:30;3.35;;;2.25;;
54937;SDS011;52756;52.826;6.214;2023-08-12T10:39:57;2.53;;;2.10;;
54937;SDS011;52756;52.826;6.214;2023-08-12T10:42:39;2.60;;;1.98;;
54937;SDS011;52756;52.826;6.214;2023-08-12T10:45:09;2.47;;;1.70;;
54937;SDS011;52756;52.826;6.214;2023-08-12T10:47:39;3.25;;;2.33;;
54937;SDS011;52756;52.826;6.214;2023-08-12T10:50:13;2.63;;;1.90;;
54937;SDS011;52756;52.826;6.214;2023-08-12T10:52:42;3.08;;;1.80;;
54937;SDS011;52756;52.826;6.214;2023-08-12T10:55:17;2.70;;;1.85;;
54937;SDS011;52756;52.826;6.214;2023-08-12T10:57:49;2.53;;;1.90;;
54937;SDS011;52756;52.826;6.214;2023-08-12T11:00:17;2.65;;;1.60;;
54937;SDS011;52756;52.826;6.214;2023-08-12T11:02:53;2.00;;;1.00;;
54937;SDS011;52756;52.826;6.214;2023-08-12T11:05:21;2.80;;;1.65;;
54937;SDS011;52756;52.826;6.214;2023-08-12T11:07:48;1.55;;;1.00;;
54937;SDS011;52756;52.826;6.214;2023-08-12T11:10:26;3.22;;;2.42;;
54937;SDS011;52756;52.826;6.214;2023-08-12T11:18:15;3.60;;;3.05;;
54937;SDS011;52756;52.826;6.214;2023-08-12T11:20:42;3.85;;;1.70;;
54937;SDS011;52756;52.826;6.214;2023-08-12T11:23:08;2.97;;;2.30;;
54937;SDS011;52756;52.826;6.214;2023-08-12T11:25:35;4.85;;;4.25;;
54937;SDS011;52756;52.826;6.214;2023-08-12T11:28:03;6.53;;;5.45;;
54937;SDS011;52756;52.826;6.214;2023-08-12T11:30:30;5.30;;;3.90;;
54937;SDS011;52756;52.826;6.214;2023-08-12T11:32:56;5.78;;;3.33;;
54937;SDS011;52756;52.826;6.214;2023-08-12T11:35:23;5.50;;;3.13;;
54937;SDS011;52756;52.826;6.214;2023-08-12T11:37:50;5.00;;;3.03;;
54937;SDS011;52756;52.826;6.214;2023-08-12T11:40:21;4.85;;;3.20;;
54937;SDS011;52756;52.826;6.214;2023-08-12T11:42:48;5.43;;;3.28;;
54937;SDS011;52756;52.826;6.214;2023-08-12T11:45:22;4.15;;;2.65;;
54937;SDS011;52756;52.826;6.214;2023-08-12T11:47:51;4.40;;;2.78;;
54937;SDS011;52756;52.826;6.214;2023-08-12T11:50:19;5.85;;;3.53;;
54937;SDS011;52756;52.826;6.214;2023-08-12T11:52:46;6.68;;;3.22;;
54937;SDS011;52756;52.826;6.214;2023-08-12T11:55:12;5.47;;;2.90;;
54937;SDS011;52756;52.826;6.214;2023-08-12T11:57:41;6.07;;;3.45;;
54937;SDS011;52756;52.826;6.214;2023-08-12T12:00:09;5.90;;;3.58;;
54937;SDS011;52756;52.826;6.214;2023-08-12T12:02:40;5.53;;;3.10;;
54937;SDS011;52756;52.826;6.214;2023-08-12T12:05:16;5.53;;;2.92;;
54937;SDS011;52756;52.826;6.214;2023-08-12T12:07:43;6.22;;;2.80;;
54937;SDS011;52756;52.826;6.214;2023-08-12T12:10:18;4.53;;;2.08;;
54937;SDS011;52756;52.826;6.214;2023-08-12T12:12:53;6.75;;;2.65;;
54937;SDS011;52756;52.826;6.214;2023-08-12T12:15:20;4.10;;;2.80;;
54937;SDS011;52756;52.826;6.214;2023-08-12T12:17:46;5.95;;;2.95;;
54937;SDS011;52756;52.826;6.214;2023-08-12T12:20:12;4.55;;;2.70;;
54937;SDS011;52756;52.826;6.214;2023-08-12T12:22:40;6.00;;;2.47;;
54937;SDS011;52756;52.826;6.214;2023-08-12T12:25:09;4.47;;;1.98;;
54937;SDS011;52756;52.826;6.214;2023-08-12T12:27:38;5.88;;;2.10;;
54937;SDS011;52756;52.826;6.214;2023-08-12T12:30:05;7.80;;;2.38;;
54937;SDS011;52756;52.826;6.214;2023-08-12T12:32:33;4.55;;;2.22;;
54937;SDS011;52756;52.826;6.214;2023-08-12T12:34:59;4.03;;;1.98;;
54937;SDS011;52756;52.826;6.214;2023-08-12T12:37:25;4.65;;;2.00;;
54937;SDS011;52756;52.826;6.214;2023-08-12T12:39:50;7.25;;;2.33;;
54937;SDS011;52756;52.826;6.214;2023-08-12T12:42:16;5.20;;;1.80;;
54937;SDS011;52756;52.826;6.214;2023-08-12T12:44:43;5.40;;;2.05;;
54937;SDS011;52756;52.826;6.214;2023-08-12T12:47:09;5.03;;;2.08;;
54937;SDS011;52756;52.826;6.214;2023-08-12T12:49:37;6.50;;;2.75;;
54937;SDS011;52756;52.826;6.214;2023-08-12T12:52:03;3.70;;;1.67;;
54937;SDS011;52756;52.826;6.214;2023-08-12T12:54:29;5.22;;;1.88;;
54937;SDS011;52756;52.826;6.214;2023-08-12T12:56:56;5.65;;;2.05;;
54937;SDS011;52756;52.826;6.214;2023-08-12T12:59:22;4.70;;;1.95;;
54937;SDS011;52756;52.826;6.214;2023-08-12T13:01:48;4.13;;;1.55;;
54937;SDS011;52756;52.826;6.214;2023-08-12T13:04:14;5.55;;;2.50;;
54937;SDS011;52756;52.826;6.214;2023-08-12T13:06:39;6.32;;;2.08;;
54937;SDS011;52756;52.826;6.214;2023-08-12T13:09:05;6.18;;;1.88;;
54937;SDS011;52756;52.826;6.214;2023-08-12T13:11:32;6.18;;;2.08;;
54937;SDS011;52756;52.826;6.214;2023-08-12T13:14:01;7.07;;;2.72;;
54937;SDS011;52756;52.826;6.214;2023-08-12T13:16:28;5.10;;;2.28;;
54937;SDS011;52756;52.826;6.214;2023-08-12T13:18:54;8.48;;;2.35;;
54937;SDS011;52756;52.826;6.214;2023-08-12T13:21:20;4.25;;;1.90;;
54937;SDS011;52756;52.826;6.214;2023-08-12T13:23:45;7.25;;;2.28;;
54937;SDS011;52756;52.826;6.214;2023-08-12T13:26:11;4.28;;;1.42;;
54937;SDS011;52756;52.826;6.214;2023-08-12T13:28:37;8.95;;;2.15;;
54937;SDS011;52756;52.826;6.214;2023-08-12T13:31:02;5.60;;;1.63;;
54937;SDS011;52756;52.826;6.214;2023-08-12T13:33:28;8.13;;;2.40;;
54937;SDS011;52756;52.826;6.214;2023-08-12T13:35:54;4.45;;;1.40;;
54937;SDS011;52756;52.826;6.214;2023-08-12T13:38:19;5.90;;;2.08;;
54937;SDS011;52756;52.826;6.214;2023-08-12T13:40:45;6.88;;;2.65;;
54937;SDS011;52756;52.826;6.214;2023-08-12T13:43:11;9.00;;;2.72;;
54937;SDS011;52756;52.826;6.214;2023-08-12T13:45:36;6.93;;;1.90;;
54937;SDS011;52756;52.826;6.214;2023-08-12T13:48:02;5.05;;;1.63;;
54937;SDS011;52756;52.826;6.214;2023-08-12T13:50:28;6.10;;;2.00;;
54937;SDS011;52756;52.826;6.214;2023-08-12T13:52:54;4.50;;;1.98;;
54937;SDS011;52756;52.826;6.214;2023-08-12T13:55:20;5.82;;;2.17;;
54937;SDS011;52756;52.826;6.214;2023-08-12T13:57:45;7.03;;;1.92;;
54937;SDS011;52756;52.826;6.214;2023-08-12T14:00:11;8.93;;;2.30;;
54937;SDS011;52756;52.826;6.214;2023-08-12T14:02:39;5.93;;;1.63;;
54937;SDS011;52756;52.826;6.214;2023-08-12T14:05:06;5.65;;;2.05;;
54937;SDS011;52756;52.826;6.214;2023-08-12T14:07:32;6.10;;;2.00;;
54937;SDS011;52756;52.826;6.214;2023-08-12T14:09:58;5.38;;;2.05;;
54937;SDS011;52756;52.826;6.214;2023-08-12T14:12:24;6.75;;;1.73;;
54937;SDS011;52756;52.826;6.214;2023-08-12T14:14:50;8.98;;;2.72;;
54937;SDS011;52756;52.826;6.214;2023-08-12T14:17:16;7.53;;;2.15;;
54937;SDS011;52756;52.826;6.214;2023-08-12T14:19:43;5.40;;;1.70;;
54937;SDS011;52756;52.826;6.214;2023-08-12T14:22:12;7.57;;;2.55;;
54937;SDS011;52756;52.826;6.214;2023-08-12T14:24:38;7.05;;;1.70;;
54937;SDS011;52756;52.826;6.214;2023-08-12T14:27:04;6.50;;;2.10;;
54937;SDS011;52756;52.826;6.214;2023-08-12T14:29:30;6.47;;;1.90;;
54937;SDS011;52756;52.826;6.214;2023-08-12T14:31:56;6.25;;;1.90;;
54937;SDS011;52756;52.826;6.214;2023-08-12T14:34:22;5.85;;;1.77;;
54937;SDS011;52756;52.826;6.214;2023-08-12T14:36:47;7.32;;;2.25;;
54937;SDS011;52756;52.826;6.214;2023-08-12T14:39:13;8.20;;;2.65;;
54937;SDS011;52756;52.826;6.214;2023-08-12T14:41:38;6.40;;;2.20;;
54937;SDS011;52756;52.826;6.214;2023-08-12T14:44:04;6.28;;;2.53;;
54937;SDS011;52756;52.826;6.214;2023-08-12T14:46:30;6.85;;;2.35;;
54937;SDS011;52756;52.826;6.214;2023-08-12T14:48:56;7.47;;;2.28;;